createdAt,value
2022-11-28T00:02:11.402Z,1.20
2022-11-28T00:04:38.187Z,1.10
2022-11-28T00:07:05.267Z,1.20
2022-11-28T00:09:32.035Z,1.10
2022-11-28T00:11:58.670Z,1.10
2022-11-28T00:14:25.274Z,1.10
2022-11-28T00:16:51.887Z,1.20
2022-11-28T00:19:18.505Z,1.20
2022-11-28T00:21:45.167Z,1.30
2022-11-28T00:24:11.785Z,1.30
2022-11-28T00:26:40.410Z,1.30
2022-11-28T00:29:08.143Z,1.30
2022-11-28T00:31:36.132Z,1.40
2022-11-28T00:34:03.207Z,1.40
2022-11-28T00:36:30.345Z,1.40
2022-11-28T00:38:57.151Z,1.30
2022-11-28T00:41:25.037Z,1.30
2022-11-28T00:43:51.860Z,1.40
2022-11-28T00:46:19.567Z,1.50
2022-11-28T00:48:46.214Z,1.50
2022-11-28T00:51:14.260Z,1.50
2022-11-28T00:53:42.500Z,1.50
2022-11-28T00:56:12.895Z,1.40
2022-11-28T00:58:40.084Z,1.40
2022-11-28T01:01:08.074Z,1.50
2022-11-28T01:03:34.826Z,1.50
2022-11-28T01:06:01.411Z,1.40
2022-11-28T01:08:28.287Z,1.20
2022-11-28T01:10:54.913Z,1.30
2022-11-28T01:13:21.569Z,1.30
2022-11-28T01:15:48.246Z,1.30
2022-11-28T01:18:14.887Z,1.30
2022-11-28T01:20:41.686Z,1.30
2022-11-28T01:23:08.302Z,1.40
2022-11-28T01:25:34.916Z,1.40
2022-11-28T01:28:01.579Z,1.50
2022-11-28T01:30:28.243Z,1.60
2022-11-28T01:32:54.927Z,1.60
2022-11-28T01:35:21.531Z,1.70
2022-11-28T01:37:48.137Z,1.60
2022-11-28T01:40:14.819Z,1.60
2022-11-28T01:42:41.460Z,1.60
2022-11-28T01:45:16.706Z,1.20
2022-11-28T01:47:43.695Z,1.30
2022-11-28T01:50:10.811Z,1.40
2022-11-28T01:52:39.762Z,1.30
2022-11-28T01:55:06.891Z,1.30
2022-11-28T01:57:33.758Z,1.10
2022-11-28T02:00:09.785Z,1.30
2022-11-28T02:02:40.886Z,1.40
2022-11-28T02:05:08.151Z,1.50
2022-11-28T02:07:35.236Z,1.60
2022-11-28T02:10:03.850Z,1.70
2022-11-28T02:12:52.724Z,1.70
2022-11-28T02:15:43.192Z,1.70
2022-11-28T02:18:13.172Z,1.80
2022-11-28T02:20:52.115Z,1.70
2022-11-28T02:23:41.867Z,1.60
2022-11-28T02:26:23.460Z,1.70
2022-11-28T02:28:50.055Z,1.70
2022-11-28T02:31:16.664Z,1.70
2022-11-28T02:33:46.388Z,1.80
2022-11-28T02:36:24.136Z,1.80
2022-11-28T02:38:57.052Z,1.70
2022-11-28T02:41:30.670Z,1.80
2022-11-28T02:44:10.215Z,1.80
2022-11-28T02:46:52.245Z,1.90
2022-11-28T02:49:37.142Z,1.90
2022-11-28T02:52:06.919Z,1.90
2022-11-28T02:54:33.814Z,1.90
2022-11-28T02:57:00.468Z,1.90
2022-11-28T02:59:27.044Z,1.80
2022-11-28T03:01:53.766Z,1.80
2022-11-28T03:04:28.714Z,1.70
2022-11-28T03:07:13.495Z,1.60
2022-11-28T03:09:57.019Z,1.60
2022-11-28T03:12:23.634Z,1.70
2022-11-28T03:14:50.781Z,1.80
2022-11-28T03:17:26.484Z,1.70
2022-11-28T03:20:14.186Z,1.70
2022-11-28T03:22:44.890Z,1.70
2022-11-28T03:25:28.352Z,1.60
2022-11-28T03:28:18.279Z,1.70
2022-11-28T03:30:47.952Z,1.60
2022-11-28T03:33:16.281Z,1.60
2022-11-28T03:35:46.096Z,1.70
2022-11-28T03:38:23.598Z,1.80
2022-11-28T03:40:52.294Z,1.80
2022-11-28T03:43:20.211Z,1.80
2022-11-28T03:45:48.871Z,1.80
2022-11-28T03:48:19.662Z,1.80
2022-11-28T03:50:48.437Z,1.90
2022-11-28T03:53:17.786Z,2.00
2022-11-28T03:55:55.066Z,2.10
2022-11-28T03:58:24.842Z,2.10
2022-11-28T04:00:59.629Z,2.10
2022-11-28T04:03:26.323Z,2.20
2022-11-28T04:05:58.751Z,2.20
2022-11-28T04:08:35.286Z,2.20
2022-11-28T04:11:07.119Z,2.20
2022-11-28T04:13:41.075Z,2.30
2022-11-28T04:16:13.830Z,2.20
2022-11-28T04:18:49.002Z,2.20
2022-11-28T04:21:21.511Z,2.20
2022-11-28T04:23:49.222Z,2.30
2022-11-28T04:26:37.525Z,2.30
2022-11-28T04:29:06.583Z,2.20
2022-11-28T04:31:34.083Z,2.30
2022-11-28T04:34:03.813Z,2.30
2022-11-28T04:36:31.067Z,2.30
2022-11-28T04:38:58.855Z,2.30
2022-11-28T04:41:32.918Z,2.30
2022-11-28T04:44:02.108Z,2.30
2022-11-28T04:46:33.929Z,2.30
2022-11-28T04:49:00.759Z,2.30
2022-11-28T04:51:32.455Z,2.40
2022-11-28T04:54:10.726Z,2.40
2022-11-28T04:56:41.086Z,2.40
2022-11-28T04:59:08.186Z,2.40
2022-11-28T05:01:36.120Z,2.40
2022-11-28T05:04:02.949Z,2.40
2022-11-28T05:06:33.899Z,2.40
2022-11-28T05:09:00.542Z,2.40
2022-11-28T05:11:27.518Z,2.40
2022-11-28T05:13:54.396Z,2.50
2022-11-28T05:16:21.300Z,2.50
2022-11-28T05:18:48.123Z,2.50
2022-11-28T05:21:14.853Z,2.40
2022-11-28T05:23:42.462Z,2.40
2022-11-28T05:26:10.490Z,2.20
2022-11-28T05:28:37.251Z,2.20
2022-11-28T05:31:03.959Z,2.20
2022-11-28T05:33:31.130Z,2.30
2022-11-28T05:36:02.158Z,2.30
2022-11-28T05:38:29.060Z,2.30
2022-11-28T05:40:55.665Z,2.30
2022-11-28T05:43:24.085Z,2.40
2022-11-28T05:45:50.990Z,2.30
2022-11-28T05:48:17.716Z,2.30
2022-11-28T05:50:44.323Z,2.30
2022-11-28T05:53:11.460Z,2.40
2022-11-28T05:55:39.354Z,2.40
2022-11-28T05:58:06.078Z,2.40
2022-11-28T06:00:32.716Z,2.40
2022-11-28T06:03:01.511Z,2.40
2022-11-28T06:05:42.345Z,2.40
2022-11-28T06:08:11.371Z,2.50
2022-11-28T06:10:38.012Z,2.50
2022-11-28T06:13:04.891Z,2.40
2022-11-28T06:15:36.163Z,2.20
2022-11-28T06:18:04.379Z,2.20
2022-11-28T06:20:30.993Z,2.20
2022-11-28T06:22:57.633Z,2.30
2022-11-28T06:25:24.263Z,2.30
2022-11-28T06:27:50.994Z,2.40
2022-11-28T06:30:17.611Z,2.40
2022-11-28T06:32:44.243Z,2.40
2022-11-28T06:35:11.014Z,2.40
2022-11-28T06:37:37.689Z,2.40
2022-11-28T06:40:04.827Z,2.50
2022-11-28T06:42:31.468Z,2.50
2022-11-28T06:44:58.061Z,2.50
2022-11-28T06:47:24.674Z,2.60
2022-11-28T06:49:51.280Z,2.60
2022-11-28T06:52:17.922Z,2.60
2022-11-28T06:54:44.647Z,2.70
2022-11-28T06:57:11.345Z,2.60
2022-11-28T06:59:38.108Z,2.50
2022-11-28T07:02:07.711Z,2.40
2022-11-28T07:04:34.668Z,2.40
2022-11-28T07:07:01.433Z,2.30
2022-11-28T07:09:28.086Z,2.40
2022-11-28T07:11:55.134Z,2.40
2022-11-28T07:14:21.904Z,2.40
2022-11-28T07:16:49.281Z,2.40
2022-11-28T07:19:16.086Z,2.40
2022-11-28T07:21:42.812Z,2.40
2022-11-28T07:24:09.571Z,2.40
2022-11-28T07:26:38.000Z,2.40
2022-11-28T07:29:06.949Z,2.40
2022-11-28T07:31:33.848Z,2.50
2022-11-28T07:34:03.095Z,2.50
2022-11-28T07:36:30.436Z,2.50
2022-11-28T07:39:01.142Z,2.50
2022-11-28T07:41:28.512Z,2.50
2022-11-28T07:43:56.586Z,2.60
2022-11-28T07:46:23.400Z,2.60
2022-11-28T07:48:50.042Z,2.60
2022-11-28T07:51:27.477Z,2.60
2022-11-28T07:53:54.121Z,2.70
2022-11-28T07:56:22.417Z,2.80
2022-11-28T07:58:49.403Z,2.80
2022-11-28T08:01:20.313Z,2.80
2022-11-28T08:03:47.396Z,2.80
2022-11-28T08:06:17.696Z,2.80
2022-11-28T08:08:46.933Z,2.80
2022-11-28T08:11:14.243Z,2.80
2022-11-28T08:13:41.183Z,2.80
2022-11-28T08:16:09.396Z,2.90
2022-11-28T08:18:36.356Z,2.90
2022-11-28T08:21:13.568Z,3.00
2022-11-28T08:23:40.582Z,3.00
2022-11-28T08:26:08.577Z,3.10
2022-11-28T08:28:35.260Z,3.10
2022-11-28T08:31:08.879Z,3.10
2022-11-28T08:33:35.611Z,3.10
2022-11-28T08:36:06.216Z,3.20
2022-11-28T08:38:32.925Z,3.20
2022-11-28T08:41:07.130Z,3.20
2022-11-28T08:43:34.373Z,3.30
2022-11-28T08:46:01.429Z,3.30
2022-11-28T08:48:28.133Z,3.30
2022-11-28T08:50:54.761Z,3.40
2022-11-28T08:53:21.512Z,3.40
2022-11-28T08:55:48.238Z,3.50
2022-11-28T08:58:14.884Z,3.50
2022-11-28T09:00:42.596Z,3.60
2022-11-28T09:03:19.475Z,3.70
2022-11-28T09:05:46.985Z,3.80
2022-11-28T09:08:14.503Z,3.90
2022-11-28T09:10:41.704Z,4.00
2022-11-28T09:13:09.050Z,4.00
2022-11-28T09:15:39.101Z,4.10
2022-11-28T09:18:05.856Z,4.20
2022-11-28T09:20:33.056Z,4.30
2022-11-28T09:22:59.662Z,4.40
2022-11-28T09:25:26.271Z,4.50
2022-11-28T09:27:53.000Z,4.60
2022-11-28T09:30:22.702Z,4.70
2022-11-28T09:32:49.718Z,4.80
2022-11-28T09:35:17.665Z,4.90
2022-11-28T09:37:44.644Z,4.90
2022-11-28T09:40:16.336Z,5.00
2022-11-28T09:42:44.084Z,5.10
2022-11-28T09:45:23.622Z,5.10
2022-11-28T09:48:10.492Z,5.20
2022-11-28T09:50:39.678Z,5.30
2022-11-28T09:53:12.416Z,5.40
2022-11-28T09:55:44.994Z,5.40
2022-11-28T09:58:14.052Z,5.50
2022-11-28T10:00:55.436Z,5.50
2022-11-28T10:03:37.441Z,5.60
2022-11-28T10:06:10.284Z,5.60
2022-11-28T10:08:46.334Z,5.60
2022-11-28T10:11:31.936Z,5.70
2022-11-28T10:14:13.838Z,5.80
2022-11-28T10:16:45.468Z,5.80
2022-11-28T10:19:38.610Z,5.90
2022-11-28T10:22:06.571Z,6.00
2022-11-28T10:24:41.234Z,6.10
2022-11-28T10:27:12.415Z,6.20
2022-11-28T10:29:48.706Z,6.20
2022-11-28T10:32:20.008Z,6.30
2022-11-28T10:34:50.184Z,6.40
2022-11-28T10:37:27.280Z,6.40
2022-11-28T10:39:54.729Z,6.50
2022-11-28T10:42:24.314Z,6.50
2022-11-28T10:45:12.864Z,6.60
2022-11-28T10:47:47.844Z,6.60
2022-11-28T10:50:43.996Z,6.70
2022-11-28T10:53:18.250Z,6.70
2022-11-28T10:56:06.136Z,6.80
2022-11-28T10:58:56.916Z,6.80
2022-11-28T11:01:24.081Z,6.80
2022-11-28T11:03:50.784Z,6.90
2022-11-28T11:06:17.381Z,6.90
2022-11-28T11:08:45.384Z,6.90
2022-11-28T11:11:24.291Z,6.90
2022-11-28T11:13:56.437Z,6.90
2022-11-28T11:16:23.251Z,6.90
2022-11-28T11:18:49.936Z,7.00
2022-11-28T11:21:17.931Z,7.00
2022-11-28T11:23:45.043Z,7.00
2022-11-28T11:26:31.886Z,7.10
2022-11-28T11:28:58.845Z,7.10
2022-11-28T11:31:31.075Z,7.10
2022-11-28T11:34:06.398Z,7.10
2022-11-28T11:36:34.319Z,7.10
2022-11-28T11:39:21.247Z,7.20
2022-11-28T11:41:49.602Z,7.20
2022-11-28T11:44:18.979Z,7.30
2022-11-28T11:47:00.603Z,7.30
2022-11-28T11:49:31.345Z,7.30
2022-11-28T11:51:58.836Z,7.30
2022-11-28T11:54:25.508Z,7.30
2022-11-28T11:57:05.697Z,7.40
2022-11-28T11:59:44.435Z,7.50
2022-11-28T12:02:46.994Z,7.50
2022-11-28T12:05:18.194Z,7.50
2022-11-28T12:07:50.777Z,7.50
2022-11-28T12:10:19.143Z,7.60
2022-11-28T12:12:45.777Z,7.60
2022-11-28T12:15:16.120Z,7.60
2022-11-28T12:17:58.836Z,7.60
2022-11-28T12:20:28.845Z,7.60
2022-11-28T12:23:03.376Z,7.60
2022-11-28T12:25:35.394Z,7.60
2022-11-28T12:28:13.842Z,7.60
2022-11-28T12:30:50.035Z,7.60
2022-11-28T12:33:36.106Z,7.70
2022-11-28T12:36:31.907Z,7.70
2022-11-28T12:39:00.300Z,7.70
2022-11-28T12:41:35.459Z,7.70
2022-11-28T12:44:22.348Z,7.70
2022-11-28T12:46:49.018Z,7.70
2022-11-28T12:49:22.224Z,7.70
2022-11-28T12:52:00.823Z,7.70
2022-11-28T12:54:45.737Z,7.60
2022-11-28T12:57:12.370Z,7.60
2022-11-28T12:59:57.478Z,7.60
2022-11-28T13:02:42.862Z,7.60
2022-11-28T13:05:28.130Z,7.60
2022-11-28T13:08:13.532Z,7.60
2022-11-28T13:10:44.366Z,7.60
2022-11-28T13:13:17.533Z,7.60
2022-11-28T13:15:50.255Z,7.60
2022-11-28T13:18:39.406Z,7.60
2022-11-28T13:21:24.856Z,7.50
2022-11-28T13:24:03.718Z,7.50
2022-11-28T13:26:33.366Z,7.50
2022-11-28T13:28:59.965Z,7.50
2022-11-28T13:31:30.845Z,7.50
2022-11-28T13:33:57.780Z,7.50
2022-11-28T13:39:23.769Z,7.50
2022-11-28T13:42:28.405Z,7.50
2022-11-28T13:44:52.485Z,7.50
2022-11-28T13:47:22.191Z,7.50
2022-11-28T13:49:49.021Z,7.40
2022-11-28T13:52:18.389Z,7.40
2022-11-28T13:54:51.438Z,7.40
2022-11-28T13:57:19.088Z,7.40
2022-11-28T13:59:54.810Z,7.40
2022-11-28T14:02:32.730Z,7.30
2022-11-28T14:04:59.583Z,7.30
2022-11-28T14:07:29.649Z,7.30
2022-11-28T14:10:06.198Z,7.30
2022-11-28T14:12:34.023Z,7.20
2022-11-28T14:15:10.047Z,7.20
2022-11-28T14:17:39.475Z,7.20
2022-11-28T14:20:30.093Z,7.20
2022-11-28T14:23:09.600Z,7.20
2022-11-28T14:25:44.512Z,7.20
2022-11-28T14:28:17.100Z,7.10
2022-11-28T14:30:45.163Z,7.10
2022-11-28T14:33:23.783Z,7.10
2022-11-28T14:35:50.551Z,7.10
2022-11-28T14:38:30.162Z,7.00
2022-11-28T14:41:00.178Z,7.00
2022-11-28T14:43:32.232Z,6.90
2022-11-28T14:46:15.878Z,6.90
2022-11-28T14:49:02.646Z,6.80
2022-11-28T14:51:45.593Z,6.70
2022-11-28T14:54:15.200Z,6.70
2022-11-28T14:56:41.938Z,6.70
2022-11-28T14:59:10.068Z,6.70
2022-11-28T15:01:49.663Z,6.60
2022-11-28T15:04:34.491Z,6.60
2022-11-28T15:07:03.043Z,6.60
2022-11-28T15:09:37.914Z,6.60
2022-11-28T15:12:08.509Z,6.50
2022-11-28T15:14:37.622Z,6.50
2022-11-28T15:17:06.120Z,6.30
2022-11-28T15:19:34.551Z,6.30
2022-11-28T15:22:01.620Z,6.20
2022-11-28T15:24:38.044Z,6.10
2022-11-28T15:27:07.775Z,6.00
2022-11-28T15:29:34.819Z,6.00
2022-11-28T15:32:02.772Z,6.00
2022-11-28T15:34:33.848Z,6.00
2022-11-28T15:37:02.289Z,6.00
2022-11-28T15:39:39.877Z,6.00
2022-11-28T15:42:09.187Z,6.00
2022-11-28T15:44:37.562Z,6.00
2022-11-28T15:47:05.161Z,5.90
2022-11-28T15:49:33.550Z,5.90
2022-11-28T15:52:01.823Z,5.90
2022-11-28T15:54:31.564Z,5.90
2022-11-28T15:56:59.011Z,5.80
2022-11-28T15:59:25.670Z,5.80
2022-11-28T16:01:59.352Z,5.80
2022-11-28T16:04:27.367Z,5.70
2022-11-28T16:06:56.650Z,5.70
2022-11-28T16:09:26.453Z,5.70
2022-11-28T16:11:53.806Z,5.60
2022-11-28T16:14:51.324Z,5.60
2022-11-28T16:17:23.776Z,5.50
2022-11-28T16:19:51.152Z,5.60
2022-11-28T16:22:19.512Z,5.50
2022-11-28T16:24:47.797Z,5.50
2022-11-28T16:27:29.818Z,5.50
2022-11-28T16:29:56.551Z,5.40
2022-11-28T16:32:31.831Z,5.40
2022-11-28T16:35:00.737Z,5.40
2022-11-28T16:37:28.628Z,5.30
2022-11-28T16:40:07.044Z,5.30
2022-11-28T16:42:34.773Z,5.30
2022-11-28T16:45:30.915Z,5.20
2022-11-28T16:48:14.028Z,5.20
2022-11-28T16:50:59.808Z,5.20
2022-11-28T16:53:44.649Z,5.10
2022-11-28T16:56:26.579Z,5.10
2022-11-28T16:59:11.541Z,5.10
2022-11-28T17:01:39.128Z,5.10
2022-11-28T17:04:05.815Z,5.10
2022-11-28T17:06:34.245Z,5.10
2022-11-28T17:09:01.428Z,5.10
2022-11-28T17:11:29.684Z,5.10
2022-11-28T17:13:57.830Z,5.10
2022-11-28T17:16:26.278Z,5.00
2022-11-28T17:18:53.386Z,5.10
2022-11-28T17:21:34.316Z,5.10
2022-11-28T17:24:01.187Z,4.90
2022-11-28T17:26:27.875Z,4.80
2022-11-28T17:28:54.540Z,4.60
2022-11-28T17:31:21.979Z,4.60
2022-11-28T17:33:48.662Z,4.60
2022-11-28T17:36:15.315Z,4.70
2022-11-28T17:38:42.001Z,4.70
2022-11-28T17:41:11.820Z,4.70
2022-11-28T17:43:39.317Z,4.80
2022-11-28T17:46:06.331Z,4.80
2022-11-28T17:48:32.961Z,4.80
2022-11-28T17:51:01.939Z,4.80
2022-11-28T17:53:28.671Z,4.90
2022-11-28T17:55:59.521Z,4.80
2022-11-28T17:58:28.872Z,4.80
2022-11-28T18:01:00.468Z,4.60
2022-11-28T18:03:28.183Z,4.40
2022-11-28T18:05:54.808Z,4.30
2022-11-28T18:08:22.517Z,4.40
2022-11-28T18:10:49.391Z,4.50
2022-11-28T18:13:17.626Z,4.50
2022-11-28T18:15:46.025Z,4.60
2022-11-28T18:18:12.905Z,4.70
2022-11-28T18:20:39.858Z,4.70
2022-11-28T18:23:10.235Z,4.70
2022-11-28T18:25:40.604Z,4.70
2022-11-28T18:28:07.792Z,4.70
2022-11-28T18:30:34.417Z,4.70
2022-11-28T18:33:01.148Z,4.70
2022-11-28T18:35:27.868Z,4.70
2022-11-28T18:37:54.764Z,4.70
2022-11-28T18:40:21.411Z,4.70
2022-11-28T18:42:48.041Z,4.70
2022-11-28T18:45:14.872Z,4.60
2022-11-28T18:47:42.323Z,4.50
2022-11-28T18:50:09.089Z,4.50
2022-11-28T18:52:36.235Z,4.40
2022-11-28T18:55:03.370Z,4.30
2022-11-28T18:57:32.742Z,4.30
2022-11-28T19:00:00.891Z,4.30
2022-11-28T19:02:28.295Z,4.40
2022-11-28T19:04:55.250Z,4.50
2022-11-28T19:07:22.500Z,4.40
2022-11-28T19:09:49.420Z,4.50
2022-11-28T19:12:18.841Z,4.50
2022-11-28T19:14:46.076Z,4.60
2022-11-28T19:17:12.787Z,4.60
2022-11-28T19:19:41.285Z,4.60
2022-11-28T19:22:08.138Z,4.70
2022-11-28T19:24:34.933Z,4.60
2022-11-28T19:27:01.886Z,4.60
2022-11-28T19:29:28.483Z,4.60
2022-11-28T19:31:55.418Z,4.60
2022-11-28T19:34:22.820Z,4.60
2022-11-28T19:36:50.903Z,4.60
2022-11-28T19:39:22.388Z,4.60
2022-11-28T19:41:49.485Z,4.70
2022-11-28T19:44:16.466Z,4.60
2022-11-28T19:46:43.184Z,4.70
2022-11-28T19:49:15.351Z,4.70
2022-11-28T19:51:42.079Z,4.70
2022-11-28T19:54:08.879Z,4.60
2022-11-28T19:56:35.621Z,4.60
2022-11-28T19:59:02.384Z,4.70
2022-11-28T20:01:29.169Z,4.70
2022-11-28T20:03:57.215Z,4.70
2022-11-28T20:06:24.766Z,4.70
2022-11-28T20:08:52.345Z,4.70
2022-11-28T20:11:20.172Z,4.70
2022-11-28T20:13:47.482Z,4.80
2022-11-28T20:16:15.395Z,4.80
2022-11-28T20:18:43.594Z,4.90
2022-11-28T20:21:14.333Z,4.90
2022-11-28T20:23:45.652Z,4.90
2022-11-28T20:26:13.407Z,5.00
2022-11-28T20:28:41.473Z,5.00
2022-11-28T20:31:16.887Z,4.90
2022-11-28T20:33:43.549Z,4.90
2022-11-28T20:36:11.498Z,5.00
2022-11-28T20:38:38.130Z,5.00
2022-11-28T20:41:06.599Z,5.00
2022-11-28T20:43:34.390Z,5.00
2022-11-28T20:46:11.836Z,5.00
2022-11-28T20:48:39.019Z,5.00
2022-11-28T20:51:12.856Z,4.90
2022-11-28T20:53:41.250Z,4.90
2022-11-28T20:56:09.979Z,5.00
2022-11-28T20:58:36.612Z,5.00
2022-11-28T21:01:03.998Z,5.00
2022-11-28T21:03:30.657Z,5.00
2022-11-28T21:06:01.037Z,5.00
2022-11-28T21:08:30.385Z,5.00
2022-11-28T21:10:57.296Z,4.90
2022-11-28T21:13:24.073Z,4.90
2022-11-28T21:15:51.426Z,4.90
2022-11-28T21:18:18.374Z,4.90
2022-11-28T21:20:45.583Z,4.90
2022-11-28T21:23:15.019Z,4.90
2022-11-28T21:25:42.426Z,4.90
2022-11-28T21:28:09.681Z,4.90
2022-11-28T21:30:41.116Z,4.80
2022-11-28T21:33:10.186Z,4.80
2022-11-28T21:35:37.240Z,4.80
2022-11-28T21:38:04.450Z,4.70
2022-11-28T21:40:31.910Z,4.80
2022-11-28T21:42:58.608Z,4.80
2022-11-28T21:45:26.224Z,4.80
2022-11-28T21:47:52.984Z,4.70
2022-11-28T21:50:19.767Z,4.70
2022-11-28T21:52:46.392Z,4.80
2022-11-28T21:55:12.995Z,4.80
2022-11-28T21:57:42.053Z,4.80
2022-11-28T22:00:20.719Z,4.80
2022-11-28T22:03:02.572Z,4.80
2022-11-28T22:05:31.294Z,4.80
2022-11-28T22:07:59.185Z,4.80
2022-11-28T22:10:26.405Z,4.80
2022-11-28T22:12:55.349Z,4.80
2022-11-28T22:15:22.259Z,4.80
2022-11-28T22:17:49.630Z,4.80
2022-11-28T22:20:16.463Z,4.80
2022-11-28T22:22:43.356Z,4.80
2022-11-28T22:25:10.115Z,4.80
2022-11-28T22:27:38.141Z,4.80
2022-11-28T22:30:05.710Z,4.80
2022-11-28T22:32:32.522Z,4.80
2022-11-28T22:34:59.152Z,4.80
2022-11-28T22:37:25.994Z,4.80
2022-11-28T22:39:52.806Z,4.80
2022-11-28T22:42:19.427Z,4.80
2022-11-28T22:44:46.873Z,4.80
2022-11-28T22:47:14.027Z,4.80
2022-11-28T22:49:40.688Z,4.90
2022-11-28T22:52:07.402Z,4.80
2022-11-28T22:54:34.379Z,4.80
2022-11-28T22:57:01.032Z,4.80
2022-11-28T22:59:27.630Z,4.80
2022-11-28T23:01:54.348Z,4.80
2022-11-28T23:04:21.133Z,4.90
2022-11-28T23:06:47.746Z,4.90
2022-11-28T23:09:14.858Z,4.90
2022-11-28T23:11:42.681Z,4.90
2022-11-28T23:14:11.338Z,4.90
2022-11-28T23:16:39.240Z,4.80
2022-11-28T23:19:07.926Z,4.80
2022-11-28T23:21:36.143Z,4.90
2022-11-28T23:24:03.964Z,4.90
2022-11-28T23:26:31.087Z,4.90
2022-11-28T23:29:02.075Z,4.90
2022-11-28T23:31:29.998Z,4.90
2022-11-28T23:33:57.315Z,4.90
2022-11-28T23:36:25.547Z,4.90
2022-11-28T23:39:04.079Z,4.90
2022-11-28T23:41:30.772Z,4.90
2022-11-28T23:43:57.871Z,4.90
2022-11-28T23:46:25.142Z,4.80
2022-11-28T23:48:51.772Z,4.80
2022-11-28T23:51:19.040Z,4.80
2022-11-28T23:53:45.654Z,4.90
2022-11-28T23:56:13.381Z,4.80
2022-11-28T23:58:40.710Z,4.80
